< < Back
Terminal Aerodrome Forecast


Current Version              Previous Versions:   1  2  3  4  5  6  7  8  9  

Terminal Aerodrome Forecast

056
FTUS42 KMLB 212339
TAFMCO
TAF
KMCO 212339Z 2200/2224 28007KT P6SM VCTS SCT040CB SCT080 BKN250
     FM220200 27006KT P6SM FEW050 SCT250
     FM220800 29004KT P6SM SCT250
     FM221400 36007KT P6SM FEW030 SCT250
     FM221800 02008KT P6SM SCT040 BKN250=



Latest METAR

449
SAUS70 KWBC 221300 RRD
MTRMCO
METAR KMCO 221253Z 01009KT 10SM FEW020 FEW055 SCT250 27/22 A3008 RMK AO2
SLP185 T02720217


USA.gov is the U.S. government's official web portal to all federal, state and local government web resources and services.